Time;durP1;ratioP1;P1;durP2;ratioP2;P2;SDS_P1;SDS_P2;PMS_P1;PMS_P2;Temp;Humidity;BMP_temperature;BMP_pressure;BME280_temperature;BME280_humidity;BME280_pressure;Samples;Min_cycle;Max_cycle;Signal;HPM_P1;HPM_P2
2021/12/12 00:03:15;;;;;;;38.58;15.50;;;;;;;0.38;100.00;96681.88;20476816;28;20157;-74
2021/12/12 00:13:23;;;;;;;54.35;17.13;;;;;;;0.35;100.00;96692.75;20460658;28;20046;-74
2021/12/12 00:23:24;;;;;;;38.35;15.38;;;;;;;0.38;100.00;96681.88;20489229;28;20059;-74
2021/12/12 00:33:24;;;;;;;41.90;17.13;;;;;;;0.36;100.00;96653.44;20484908;28;20063;-74
2021/12/12 00:43:36;;;;;;;54.58;17.02;;;;;;;0.35;100.00;96656.25;20490604;28;20034;-73
2021/12/12 00:53:38;;;;;;;47.15;16.50;;;;;;;0.39;100.00;96657.44;20505513;28;20165;-74
2021/12/12 01:03:52;;;;;;;49.33;16.65;;;;;;;0.45;100.00;96666.19;20503709;28;20074;-74
2021/12/12 01:13:53;;;;;;;51.45;16.17;;;;;;;0.50;100.00;96658.56;20481954;28;20043;-74
2021/12/12 01:24:05;;;;;;;54.00;17.73;;;;;;;0.53;100.00;96676.38;20513570;28;21001;-74
2021/12/12 01:34:12;;;;;;;64.40;18.60;;;;;;;0.53;100.00;96674.59;20488921;28;20111;-73
2021/12/12 01:44:37;;;;;;;60.08;19.17;;;;;;;0.54;100.00;96683.19;20510268;28;20030;-74
2021/12/12 01:54:44;;;;;;;101.47;22.67;;;;;;;0.56;100.00;96695.00;20509196;28;20394;-74
2021/12/12 02:04:49;;;;;;;113.28;20.58;;;;;;;0.50;100.00;96695.84;20474558;28;20126;-74
2021/12/12 02:14:52;;;;;;;256.90;30.33;;;;;;;0.48;100.00;96677.00;20496434;28;20113;-74
2021/12/12 02:45:21;;;;;;;56.92;19.35;;;;;;;0.55;100.00;96674.34;20445474;28;20141;-74
2021/12/12 02:55:29;;;;;;;132.95;22.30;;;;;;;0.61;100.00;96678.72;20466756;28;20050;-74
2021/12/12 03:05:34;;;;;;;109.35;24.77;;;;;;;0.57;100.00;96662.72;20453566;28;20510;-74
2021/12/12 03:15:39;;;;;;;68.07;19.73;;;;;;;0.62;100.00;96656.88;20500372;28;20051;-73
2021/12/12 03:25:40;;;;;;;62.10;20.58;;;;;;;0.66;100.00;96652.03;20449888;28;20042;-74
2021/12/12 03:35:46;;;;;;;53.38;19.13;;;;;;;0.67;100.00;96669.25;20432296;28;20531;-74
2021/12/12 03:45:46;;;;;;;56.40;16.67;;;;;;;0.71;100.00;96670.44;20480675;28;20072;-74
2021/12/12 03:55:49;;;;;;;52.95;17.42;;;;;;;0.72;100.00;96672.81;20464244;28;20039;-74
2021/12/12 04:06:00;;;;;;;56.60;17.48;;;;;;;0.78;100.00;96686.81;20455601;28;20058;-74
2021/12/12 04:16:01;;;;;;;50.78;18.20;;;;;;;0.84;100.00;96683.38;20448143;28;20043;-74
2021/12/12 04:26:12;;;;;;;72.40;19.85;;;;;;;0.85;100.00;96687.56;20443027;28;20050;-73
2021/12/12 04:36:12;;;;;;;45.88;18.45;;;;;;;0.90;100.00;96685.13;20442090;28;20539;-74
2021/12/12 04:46:21;;;;;;;45.47;16.15;;;;;;;0.89;100.00;96678.28;20475032;28;20690;-73
2021/12/12 04:56:53;;;;;;;36.92;14.57;;;;;;;0.94;100.00;96686.28;20440842;28;20031;-74
2021/12/12 05:07:12;;;;;;;43.25;14.73;;;;;;;0.98;100.00;96684.84;20434274;28;20643;-74
2021/12/12 05:17:35;;;;;;;32.65;12.07;;;;;;;0.99;100.00;96683.03;20445271;28;20134;-73
2021/12/12 05:27:38;;;;;;;29.83;12.02;;;;;;;1.03;100.00;96686.03;20441368;28;20058;-73
2021/12/12 05:37:39;;;;;;;24.80;9.68;;;;;;;1.08;100.00;96689.56;20428685;28;20062;-73
2021/12/12 05:47:39;;;;;;;20.67;11.02;;;;;;;1.06;100.00;96688.97;20487868;28;20181;-73
2021/12/12 05:57:43;;;;;;;22.73;8.45;;;;;;;1.10;100.00;96684.13;20453501;28;20043;-74
2021/12/12 06:07:45;;;;;;;16.30;7.13;;;;;;;1.11;100.00;96698.78;20465436;28;20795;-74
2021/12/12 06:17:48;;;;;;;23.40;7.65;;;;;;;1.12;100.00;96702.97;20499869;28;20372;-74
2021/12/12 06:27:48;;;;;;;15.93;7.50;;;;;;;1.04;100.00;96704.03;20463232;28;20051;-73
2021/12/12 06:37:50;;;;;;;16.75;6.32;;;;;;;1.02;100.00;96700.06;20480579;28;20082;-73
2021/12/12 06:47:50;;;;;;;15.50;7.38;;;;;;;0.98;100.00;96723.97;20465069;28;20098;-73
2021/12/12 06:57:51;;;;;;;17.35;7.90;;;;;;;0.98;100.00;96723.97;20463638;28;20105;-74
2021/12/12 07:07:53;;;;;;;14.55;7.30;;;;;;;1.02;100.00;96736.59;20458737;28;20399;-74
2021/12/12 07:17:56;;;;;;;15.82;7.38;;;;;;;1.09;100.00;96745.16;20443602;28;20043;-74
2021/12/12 07:27:57;;;;;;;16.65;6.75;;;;;;;1.06;100.00;96750.78;20472302;28;20042;-74
2021/12/12 07:37:58;;;;;;;13.93;7.00;;;;;;;1.03;100.00;96748.63;20455805;28;20137;-73
2021/12/12 07:47:59;;;;;;;13.38;7.82;;;;;;;1.07;100.00;96757.63;20482467;28;20553;-74
2021/12/12 07:58:05;;;;;;;15.60;6.22;;;;;;;1.14;100.00;96768.78;20419992;28;20372;-74
2021/12/12 08:08:09;;;;;;;12.63;5.87;;;;;;;1.23;100.00;96777.16;20452804;28;20083;-74
2021/12/12 08:18:15;;;;;;;15.10;6.00;;;;;;;1.30;100.00;96791.75;20431278;28;20047;-74
2021/12/12 08:28:17;;;;;;;77.10;30.93;;;;;;;1.37;100.00;96786.50;20435493;28;20117;-73
2021/12/12 08:38:18;;;;;;;24.98;8.30;;;;;;;1.50;100.00;96804.63;20437397;28;20456;-73
2021/12/12 08:48:21;;;;;;;8.68;3.70;;;;;;;1.75;100.00;96801.97;20448602;28;20296;-74
2021/12/12 08:58:26;;;;;;;8.48;4.25;;;;;;;1.81;100.00;96808.94;20466068;28;20050;-74
2021/12/12 09:09:08;;;;;;;8.73;2.90;;;;;;;1.86;100.00;96826.63;20422655;28;20051;-74
2021/12/12 09:19:44;;;;;;;8.63;2.60;;;;;;;1.88;100.00;96821.16;20372803;28;20474;-74
2021/12/12 09:29:59;;;;;;;7.15;2.80;;;;;;;2.06;100.00;96822.97;20476184;28;20063;-74
2021/12/12 09:51:15;;;;;;;5.28;2.00;;;;;;;2.03;100.00;96813.78;20572382;23;20498;-74
2021/12/12 10:01:27;;;;;;;5.33;2.30;;;;;;;2.06;100.00;96815.13;20550249;28;20183;-74
2021/12/12 10:11:33;;;;;;;5.25;2.60;;;;;;;2.14;100.00;96825.31;20558801;28;20049;-75
2021/12/12 10:21:44;;;;;;;7.10;2.77;;;;;;;2.25;100.00;96823.78;20530655;28;20047;-74
2021/12/12 10:31:53;;;;;;;9.48;3.15;;;;;;;2.35;100.00;96808.38;20542563;28;20185;-74
2021/12/12 10:41:58;;;;;;;6.18;3.03;;;;;;;2.41;100.00;96810.09;20552800;28;20042;-74
2021/12/12 10:52:34;;;;;;;10.07;3.33;;;;;;;2.45;100.00;96789.56;20517478;28;20643;-74
2021/12/12 11:02:42;;;;;;;8.93;3.55;;;;;;;2.57;100.00;96791.19;20519498;28;20061;-75
2021/12/12 11:12:57;;;;;;;16.40;3.88;;;;;;;2.49;100.00;96794.13;20506781;28;20046;-74
2021/12/12 11:23:03;;;;;;;46.40;6.15;;;;;;;2.43;100.00;96802.84;20567739;28;20479;-74
2021/12/12 11:33:09;;;;;;;37.93;5.40;;;;;;;2.36;100.00;96821.22;20579744;28;20047;-74
2021/12/12 11:43:17;;;;;;;12.38;4.03;;;;;;;2.45;100.00;96828.78;20547916;28;20844;-74
2021/12/12 11:53:39;;;;;;;44.72;6.53;;;;;;;2.62;100.00;96832.41;20572817;28;20052;-73
2021/12/12 12:04:02;;;;;;;10.57;3.28;;;;;;;2.67;100.00;96823.88;20556938;28;20050;-73
2021/12/12 12:14:16;;;;;;;6.78;3.22;;;;;;;2.75;100.00;96819.13;20530885;28;20040;-73
2021/12/12 12:24:22;;;;;;;9.07;3.30;;;;;;;2.85;100.00;96825.66;20526255;28;20061;-73
2021/12/12 12:35:13;;;;;;;5.30;2.30;;;;;;;2.89;100.00;96813.72;20511987;28;20061;-73
2021/12/12 12:45:28;;;;;;;5.60;2.60;;;;;;;2.83;100.00;96822.47;20502300;28;20704;-73
2021/12/12 12:55:50;;;;;;;6.25;2.38;;;;;;;2.92;100.00;96826.34;20487643;28;20069;-73
2021/12/12 13:06:07;;;;;;;5.93;2.58;;;;;;;3.09;100.00;96821.31;20499967;28;21175;-73
2021/12/12 13:16:16;;;;;;;8.20;2.83;;;;;;;3.21;100.00;96824.75;20505035;28;20046;-73
2021/12/12 13:26:28;;;;;;;6.00;2.78;;;;;;;3.16;100.00;96822.00;20515875;28;20388;-73
2021/12/12 13:36:50;;;;;;;8.98;3.03;;;;;;;3.15;100.00;96817.78;20549643;28;20525;-73
2021/12/12 13:47:08;;;;;;;7.03;3.70;;;;;;;3.22;100.00;96816.66;20566353;28;20057;-73
2021/12/12 13:57:18;;;;;;;6.75;3.33;;;;;;;3.27;100.00;96825.66;20488973;28;20054;-73
2021/12/12 14:07:27;;;;;;;7.22;3.40;;;;;;;3.24;100.00;96824.28;20487582;28;20334;-73
2021/12/12 14:17:58;;;;;;;11.75;5.57;;;;;;;3.16;100.00;96832.47;20539153;28;20181;-73
2021/12/12 14:27:59;;;;;;;7.88;3.40;;;;;;;3.11;100.00;96837.59;20540906;28;20062;-73
2021/12/12 14:38:01;;;;;;;6.25;3.08;;;;;;;3.12;100.00;96839.16;20521783;28;20088;-73
2021/12/12 14:48:05;;;;;;;6.95;2.92;;;;;;;3.16;100.00;96833.25;20559452;28;20136;-73
2021/12/12 14:58:17;;;;;;;7.63;3.10;;;;;;;3.09;100.00;96848.28;20534282;28;20042;-73
2021/12/12 15:08:26;;;;;;;6.43;3.35;;;;;;;3.16;100.00;96845.53;20553192;28;20454;-73
2021/12/12 15:18:31;;;;;;;6.65;2.97;;;;;;;3.14;100.00;96850.22;20590462;28;20047;-73
2021/12/12 15:28:35;;;;;;;8.15;3.25;;;;;;;3.20;100.00;96865.81;20529651;28;20538;-73
2021/12/12 15:38:49;;;;;;;5.85;2.72;;;;;;;3.20;100.00;96881.53;20541788;28;20105;-73
2021/12/12 15:48:53;;;;;;;7.13;3.72;;;;;;;3.14;100.00;96882.41;20539949;28;20462;-74
2021/12/12 15:58:58;;;;;;;7.50;4.25;;;;;;;3.11;100.00;96890.72;20493328;28;20039;-73
2021/12/12 16:09:03;;;;;;;12.15;3.95;;;;;;;3.18;100.00;96901.88;20486791;28;20596;-73
2021/12/12 16:19:10;;;;;;;22.73;4.82;;;;;;;3.17;100.00;96904.75;20527092;28;20048;-73
2021/12/12 16:29:17;;;;;;;52.00;6.50;;;;;;;3.22;100.00;96907.47;20510760;28;20125;-73
2021/12/12 16:51:03;;;;;;;8.55;4.65;;;;;;;3.25;100.00;96920.16;20513720;28;20046;-74
2021/12/12 17:01:15;;;;;;;8.13;3.90;;;;;;;3.34;100.00;96928.47;20514449;28;20140;-74
2021/12/12 17:11:37;;;;;;;13.40;4.32;;;;;;;3.34;100.00;96934.50;20518239;28;20074;-73
2021/12/12 17:21:38;;;;;;;13.68;4.53;;;;;;;3.39;100.00;96944.31;20534228;28;20077;-74
2021/12/12 17:31:41;;;;;;;13.18;5.53;;;;;;;3.32;100.00;96944.41;20545543;28;20054;-73
2021/12/12 17:41:43;;;;;;;210.57;12.90;;;;;;;3.32;100.00;96946.22;20564059;28;20379;-74
2021/12/12 17:52:02;;;;;;;546.00;27.23;;;;;;;3.36;100.00;96947.38;20556299;28;20743;-73
2021/12/12 18:02:03;;;;;;;440.42;22.77;;;;;;;3.33;100.00;96953.88;20551133;28;20516;-72
2021/12/12 18:12:31;;;;;;;476.25;23.80;;;;;;;3.31;100.00;96969.00;20582476;28;20570;-72
2021/12/12 18:22:40;;;;;;;148.50;11.23;;;;;;;3.37;100.00;96968.13;20555227;28;20334;-73
2021/12/12 18:32:44;;;;;;;200.45;14.35;;;;;;;3.33;100.00;96969.59;20565657;28;20042;-72
2021/12/12 18:42:49;;;;;;;192.45;16.70;;;;;;;3.41;100.00;96973.69;20554354;28;20418;-72
2021/12/12 18:52:55;;;;;;;161.65;13.50;;;;;;;3.46;100.00;96992.16;20507654;28;20459;-72
2021/12/12 19:03:01;;;;;;;373.97;22.53;;;;;;;3.45;100.00;97003.66;20525537;28;20164;-72
2021/12/12 19:13:02;;;;;;;724.93;41.60;;;;;;;3.54;100.00;97006.78;20534145;28;20305;-72
2021/12/12 19:23:08;;;;;;;380.75;22.10;;;;;;;3.57;100.00;97006.31;20543360;28;20038;-72
2021/12/12 19:33:19;;;;;;;418.02;24.42;;;;;;;3.62;100.00;97014.31;20527751;28;20211;-74
2021/12/12 19:43:26;;;;;;;380.25;22.60;;;;;;;3.59;100.00;97026.03;20539699;28;20066;-73
2021/12/12 19:53:28;;;;;;;287.85;18.92;;;;;;;3.62;100.00;97022.97;20520797;28;20570;-73
2021/12/12 20:03:32;;;;;;;431.15;24.20;;;;;;;3.60;100.00;97026.84;20555853;28;20513;-73
2021/12/12 20:13:49;;;;;;;244.20;15.93;;;;;;;3.57;100.00;97028.06;20532486;28;20046;-74
2021/12/12 20:23:49;;;;;;;379.63;22.53;;;;;;;3.56;100.00;97028.31;20572413;28;20998;-73
2021/12/12 20:33:53;;;;;;;320.88;15.48;;;;;;;3.60;100.00;97043.34;20579773;28;20496;-73
2021/12/12 20:44:00;;;;;;;344.02;17.40;;;;;;;3.66;100.00;97052.16;20500142;28;20038;-73
2021/12/12 20:54:22;;;;;;;524.85;27.80;;;;;;;3.67;100.00;97039.84;20558566;28;20046;-74
2021/12/12 21:04:28;;;;;;;637.85;34.38;;;;;;;3.62;100.00;97043.16;20555120;28;20058;-74
2021/12/12 21:14:32;;;;;;;164.13;9.90;;;;;;;3.60;100.00;97032.09;20501095;28;20161;-73
2021/12/12 21:24:37;;;;;;;222.38;11.80;;;;;;;3.65;100.00;97034.03;20534891;28;20116;-72
2021/12/12 21:34:42;;;;;;;374.70;21.27;;;;;;;3.58;100.00;97034.91;20501196;28;20240;-71
2021/12/12 21:44:57;;;;;;;194.70;12.55;;;;;;;3.55;100.00;97030.09;20551051;28;20039;-72
2021/12/12 21:54:58;;;;;;;63.05;8.85;;;;;;;3.75;100.00;97023.81;20543477;28;20129;-71
2021/12/12 22:04:58;;;;;;;117.22;12.65;;;;;;;3.74;100.00;97037.94;20552796;28;20097;-72
2021/12/12 22:15:09;;;;;;;246.43;17.98;;;;;;;3.82;100.00;97045.47;20570866;28;20053;-73
2021/12/12 22:25:32;;;;;;;390.48;21.85;;;;;;;3.83;100.00;97037.41;20574686;28;20322;-73
2021/12/12 22:35:35;;;;;;;369.42;21.92;;;;;;;3.77;100.00;97045.34;20563738;28;20666;-73
2021/12/12 22:45:38;;;;;;;325.35;20.88;;;;;;;3.75;100.00;97056.06;20522536;28;20274;-73
2021/12/12 22:55:46;;;;;;;405.98;26.10;;;;;;;3.76;100.00;97052.44;20519442;28;20521;-73
2021/12/12 23:05:51;;;;;;;478.40;31.63;;;;;;;3.83;100.00;97060.19;20563507;23;20055;-88
2021/12/12 23:26:42;;;;;;;373.02;21.83;;;;;;;3.85;100.00;97057.34;20469052;28;20046;-72
2021/12/12 23:36:43;;;;;;;429.23;26.75;;;;;;;3.87;100.00;97063.16;20485415;28;20043;-72
2021/12/12 23:46:51;;;;;;;310.55;21.52;;;;;;;3.90;100.00;97057.47;20508322;28;20053;-71
2021/12/12 23:56:55;;;;;;;357.48;22.90;;;;;;;3.89;100.00;97063.75;20514705;28;20395;-72
